Time;durP1;ratioP1;P1;durP2;ratioP2;P2;SDS_P1;SDS_P2;PMS_P1;PMS_P2;Temp;Humidity;BMP_temperature;BMP_pressure;BME280_temperature;BME280_humidity;BME280_pressure;Samples;Min_cycle;Max_cycle;Signal;HPM_P1;HPM_P2
2022/06/12 00:02:13;;;;;;;25.80;20.02;;;;;;;17.93;73.17;99055.63;4973665;28;20493;-66
2022/06/12 00:04:39;;;;;;;27.17;20.50;;;;;;;17.91;73.81;99050.56;4956282;28;20053;-61
2022/06/12 00:07:05;;;;;;;27.70;20.98;;;;;;;17.91;73.50;99060.47;4948712;28;20043;-62
2022/06/12 00:09:31;;;;;;;29.00;21.00;;;;;;;17.89;73.50;99055.41;4940251;28;20120;-62
2022/06/12 00:11:57;;;;;;;42.20;31.95;;;;;;;17.88;72.60;99048.47;4973297;28;20046;-65
2022/06/12 00:14:23;;;;;;;41.72;29.27;;;;;;;17.87;73.84;99054.91;4972976;28;20050;-65
2022/06/12 00:16:52;;;;;;;31.33;22.88;;;;;;;17.88;74.95;99053.84;4973004;28;20062;-65
2022/06/12 00:19:18;;;;;;;28.85;23.15;;;;;;;17.87;75.06;99059.47;4973215;28;20106;-65
2022/06/12 00:21:44;;;;;;;33.47;24.73;;;;;;;17.84;75.95;99052.81;4972837;28;20535;-65
2022/06/12 00:24:13;;;;;;;32.42;22.55;;;;;;;17.82;76.02;99067.59;4973268;28;20050;-66
2022/06/12 00:26:44;;;;;;;33.63;25.38;;;;;;;17.79;76.50;99057.47;4955906;28;20085;-69
2022/06/12 00:29:15;;;;;;;39.97;24.98;;;;;;;17.77;76.68;99057.75;4956153;28;20053;-69
2022/06/12 00:31:47;;;;;;;32.22;22.95;;;;;;;17.76;75.09;99052.66;4955827;28;20232;-69
2022/06/12 00:34:14;;;;;;;27.40;19.70;;;;;;;17.69;73.29;99056.50;4972541;28;20057;-68
2022/06/12 00:36:40;;;;;;;26.40;18.60;;;;;;;17.65;73.13;99060.06;4955551;28;20053;-69
2022/06/12 00:39:08;;;;;;;24.00;17.80;;;;;;;17.64;72.64;99056.56;4972777;28;20555;-68
2022/06/12 00:41:33;;;;;;;22.02;17.00;;;;;;;17.67;72.72;99065.91;4955375;28;20109;-67
2022/06/12 00:43:59;;;;;;;21.20;16.77;;;;;;;17.63;72.14;99060.34;4972982;28;20508;-67
2022/06/12 00:46:35;;;;;;;23.17;17.10;;;;;;;17.57;72.26;99063.41;4972791;28;20038;-68
2022/06/12 00:49:03;;;;;;;22.48;17.00;;;;;;;17.53;72.35;99049.81;4972715;28;20133;-67
2022/06/12 00:51:28;;;;;;;25.60;17.42;;;;;;;17.52;72.74;99056.22;4923885;28;20101;-65
2022/06/12 00:53:57;;;;;;;20.75;17.15;;;;;;;17.62;72.26;99063.34;4939619;28;20043;-64
2022/06/12 00:56:29;;;;;;;25.33;16.95;;;;;;;17.64;72.13;99058.47;4971990;28;20039;-64
2022/06/12 00:59:09;;;;;;;22.30;16.98;;;;;;;17.69;72.23;99061.88;4955795;28;20127;-65
2022/06/12 01:01:42;;;;;;;22.80;16.85;;;;;;;17.81;71.94;99061.44;4955604;28;20221;-65
2022/06/12 01:06:55;;;;;;;19.83;16.92;;;;;;;17.88;71.93;99061.06;4972529;28;20055;-65
2022/06/12 01:09:28;;;;;;;22.67;18.08;;;;;;;17.94;71.78;99062.56;4955295;28;20603;-65
2022/06/12 01:11:56;;;;;;;23.70;17.25;;;;;;;17.97;71.85;99063.88;4972704;28;20518;-63
2022/06/12 01:14:26;;;;;;;19.05;16.15;;;;;;;17.87;72.16;99056.78;4955463;28;20102;-63
2022/06/12 01:16:55;;;;;;;23.42;17.23;;;;;;;17.83;72.25;99061.94;4971789;28;20058;-62
2022/06/12 01:19:35;;;;;;;20.15;16.70;;;;;;;18.02;71.61;99067.25;4939602;28;20077;-62
2022/06/12 01:22:50;;;;;;;21.40;16.75;;;;;;;18.27;71.00;99066.03;4955328;28;20034;-61
2022/06/12 01:25:33;;;;;;;19.85;15.80;;;;;;;18.67;68.75;99062.88;4920031;28;20427;-62
2022/06/12 01:28:21;;;;;;;22.20;16.35;;;;;;;19.01;67.66;99059.81;4972491;28;20493;-63
2022/06/12 01:31:06;;;;;;;20.42;14.98;;;;;;;19.26;66.55;99067.31;4972254;28;20082;-61
2022/06/12 01:34:10;;;;;;;20.67;15.10;;;;;;;19.52;65.13;99067.53;4976904;28;20121;-63
2022/06/12 01:36:54;;;;;;;21.73;14.57;;;;;;;19.74;64.01;99063.31;4931657;29;20067;-63
2022/06/12 01:39:30;;;;;;;22.38;14.13;;;;;;;20.15;62.98;99062.31;4959274;28;20584;-63
2022/06/12 01:42:05;;;;;;;23.77;14.70;;;;;;;20.38;61.84;99068.41;4928784;28;20421;-62
2022/06/12 01:44:43;;;;;;;19.02;14.05;;;;;;;20.57;61.07;99062.84;4961252;28;20069;-62
2022/06/12 01:47:35;;;;;;;21.50;14.32;;;;;;;20.69;60.52;99065.72;4961239;28;20043;-63
2022/06/12 01:50:16;;;;;;;16.45;14.10;;;;;;;20.46;60.93;99067.66;4978720;28;20073;-63
2022/06/12 01:53:00;;;;;;;17.10;13.75;;;;;;;20.11;62.06;99070.19;4961103;28;20133;-67
2022/06/12 01:55:54;;;;;;;19.50;14.48;;;;;;;19.91;62.81;99071.50;4978097;28;20428;-66
2022/06/12 01:58:29;;;;;;;18.38;13.40;;;;;;;19.61;63.09;99072.97;4961053;28;20043;-68
2022/06/12 02:01:19;;;;;;;18.23;13.70;;;;;;;19.38;64.07;99076.72;4978725;28;20436;-68
2022/06/12 02:03:53;;;;;;;17.50;13.65;;;;;;;19.55;63.53;99084.16;4977967;28;20047;-69
2022/06/12 02:06:30;;;;;;;19.80;14.23;;;;;;;19.87;62.73;99078.56;4961398;28;20034;-69
2022/06/12 02:09:05;;;;;;;18.50;13.90;;;;;;;19.80;63.01;99080.91;4960879;28;20050;-68
2022/06/12 02:14:34;;;;;;;16.73;13.48;;;;;;;20.68;60.78;99080.31;4963237;28;20078;-67
2022/06/12 02:17:02;;;;;;;15.93;14.20;;;;;;;21.12;59.94;99083.09;4961002;28;20062;-66
2022/06/12 02:19:35;;;;;;;17.88;13.45;;;;;;;21.24;58.55;99077.91;4961128;28;20420;-64
2022/06/12 02:22:09;;;;;;;20.10;13.63;;;;;;;20.92;59.82;99090.69;4960860;28;20124;-65
2022/06/12 02:24:42;;;;;;;17.20;13.55;;;;;;;20.76;60.12;99090.28;4977590;28;20042;-67
2022/06/12 02:27:12;;;;;;;16.05;13.52;;;;;;;21.31;58.66;99087.09;4978235;28;20173;-67
2022/06/12 02:29:45;;;;;;;16.42;12.60;;;;;;;21.68;56.96;99092.22;4961206;28;20141;-68
2022/06/12 02:32:28;;;;;;;17.48;13.00;;;;;;;22.21;55.00;99075.66;4960756;28;20061;-66
2022/06/12 02:35:01;;;;;;;14.95;12.80;;;;;;;22.52;53.82;99076.50;4960116;28;20394;-67
2022/06/12 02:37:34;;;;;;;15.05;12.48;;;;;;;22.98;53.11;99081.09;4977611;28;20041;-67
2022/06/12 02:40:06;;;;;;;18.42;12.25;;;;;;;23.09;51.97;99079.59;4978150;28;20419;-66
2022/06/12 02:42:39;;;;;;;13.77;11.57;;;;;;;23.32;51.45;99071.13;4960355;28;20451;-66
2022/06/12 02:45:13;;;;;;;13.80;11.38;;;;;;;23.12;50.91;99062.72;4974075;28;20504;-66
2022/06/12 02:47:40;;;;;;;14.00;12.05;;;;;;;23.22;50.76;99066.94;4957269;28;20492;-67
2022/06/12 02:50:08;;;;;;;15.50;11.00;;;;;;;23.22;50.52;99072.34;4957997;28;20432;-67
2022/06/12 02:52:46;;;;;;;15.23;12.25;;;;;;;23.13;50.63;99066.97;4985163;28;20042;-68
2022/06/12 02:55:24;;;;;;;16.65;11.52;;;;;;;23.21;50.68;99072.69;4955272;29;20282;-69
2022/06/12 02:58:04;;;;;;;16.50;10.63;;;;;;;23.25;49.80;99079.78;4963632;28;20078;-67
2022/06/12 03:00:39;;;;;;;18.30;11.35;;;;;;;23.22;49.84;99075.03;4974752;28;20053;-68
2022/06/12 03:03:25;;;;;;;13.18;10.48;;;;;;;23.41;50.00;99076.47;4957534;28;20049;-69
2022/06/12 03:05:57;;;;;;;19.33;10.95;;;;;;;23.37;49.58;99079.06;4957113;28;20035;-64
2022/06/12 03:08:29;;;;;;;13.05;9.88;;;;;;;23.32;49.99;99077.38;4957414;28;20050;-64
2022/06/12 03:11:03;;;;;;;13.43;10.32;;;;;;;23.56;49.07;99082.09;4957791;28;20069;-64
2022/06/12 03:13:30;;;;;;;14.82;10.30;;;;;;;24.01;48.44;99080.63;4974347;28;20053;-64
2022/06/12 03:15:58;;;;;;;13.93;10.50;;;;;;;23.85;48.16;99083.13;4974544;28;20539;-64
2022/06/12 03:18:28;;;;;;;11.40;10.13;;;;;;;24.07;47.62;99098.22;4974657;28;20047;-64
2022/06/12 03:21:29;;;;;;;11.05;9.82;;;;;;;24.17;47.55;99103.22;4941208;28;20047;-64
2022/06/12 03:24:19;;;;;;;10.65;9.55;;;;;;;24.13;47.23;99096.88;4956566;28;20468;-64
2022/06/12 03:27:08;;;;;;;10.75;9.40;;;;;;;23.97;47.75;99096.75;4974336;28;20054;-68
2022/06/12 03:29:55;;;;;;;12.38;9.23;;;;;;;24.03;47.78;99105.41;4974392;28;20094;-67
2022/06/12 03:32:26;;;;;;;12.90;9.75;;;;;;;24.19;47.74;99100.97;4973640;28;20039;-67
2022/06/12 03:35:00;;;;;;;11.48;9.32;;;;;;;24.29;46.14;99097.03;4941056;28;20053;-66
2022/06/12 03:38:03;;;;;;;14.38;8.90;;;;;;;24.19;46.84;99103.66;4956769;28;20066;-65
2022/06/12 03:40:43;;;;;;;10.60;7.82;;;;;;;24.29;46.56;99102.44;4951800;28;20556;-68
2022/06/12 03:43:26;;;;;;;11.63;7.38;;;;;;;24.29;45.42;99112.50;4955717;28;20053;-68
2022/06/12 03:46:01;;;;;;;11.93;7.75;;;;;;;24.32;45.78;99106.41;4974397;28;20038;-66
2022/06/12 03:48:33;;;;;;;9.82;7.78;;;;;;;24.17;45.82;99107.84;4956851;28;20043;-67
2022/06/12 03:51:28;;;;;;;13.38;7.35;;;;;;;24.28;45.95;99109.00;4956510;28;20496;-67
2022/06/12 03:54:25;;;;;;;9.30;7.20;;;;;;;24.26;45.51;99114.72;4931419;28;20065;-66
2022/06/12 03:59:41;;;;;;;7.25;6.38;;;;;;;24.15;45.25;99105.47;4973667;28;20055;-66
2022/06/12 04:02:10;;;;;;;6.85;6.00;;;;;;;24.23;44.30;99109.19;4939923;28;20050;-65
2022/06/12 04:04:37;;;;;;;7.88;6.40;;;;;;;24.29;44.37;99112.50;4939896;28;20154;-65
2022/06/12 04:07:06;;;;;;;6.10;5.50;;;;;;;24.33;44.18;99110.72;4939902;28;20062;-65
2022/06/12 04:09:35;;;;;;;7.65;6.18;;;;;;;24.61;44.14;99114.38;4956196;28;20100;-65
2022/06/12 04:12:04;;;;;;;7.47;5.68;;;;;;;24.36;43.70;99110.03;4955900;28;20404;-67
2022/06/12 04:14:35;;;;;;;9.05;5.95;;;;;;;23.76;45.13;99112.97;4973055;28;20117;-65
2022/06/12 04:17:03;;;;;;;6.82;6.13;;;;;;;23.30;46.48;99112.06;4955848;28;20089;-65
2022/06/12 04:19:31;;;;;;;8.70;5.97;;;;;;;23.05;47.18;99108.38;4956484;28;20126;-64
2022/06/12 04:22:15;;;;;;;8.40;6.05;;;;;;;22.81;48.10;99108.94;4955689;28;20062;-64
2022/06/12 04:24:47;;;;;;;7.88;6.35;;;;;;;22.78;48.76;99101.50;4955135;28;20070;-65
2022/06/12 04:27:24;;;;;;;6.57;5.50;;;;;;;22.77;48.59;99113.44;4955389;28;20053;-65
2022/06/12 04:29:58;;;;;;;6.95;5.28;;;;;;;22.68;48.42;99110.75;4956318;28;20046;-65
2022/06/12 04:32:25;;;;;;;7.13;5.75;;;;;;;22.63;48.56;99102.03;4972865;28;20055;-64
2022/06/12 04:34:53;;;;;;;6.47;5.53;;;;;;;22.38;48.95;99101.00;4955741;28;20546;-65
2022/06/12 04:37:28;;;;;;;8.35;5.55;;;;;;;22.30;49.25;99110.75;4973186;28;20039;-65
2022/06/12 04:39:55;;;;;;;6.40;5.35;;;;;;;22.57;48.65;99097.94;4972662;28;20570;-63
2022/06/12 04:42:23;;;;;;;6.05;5.45;;;;;;;23.16;47.54;99113.41;4955587;28;20108;-63
2022/06/12 04:44:50;;;;;;;8.00;5.40;;;;;;;23.49;46.96;99116.22;4972940;28;20078;-64
2022/06/12 04:47:18;;;;;;;8.15;5.40;;;;;;;23.71;46.19;99121.31;4972837;28;20137;-64
2022/06/12 04:49:44;;;;;;;8.15;5.28;;;;;;;23.72;46.04;99117.50;4972805;28;20424;-62
2022/06/12 04:52:11;;;;;;;10.27;5.15;;;;;;;23.80;46.11;99115.84;4972509;28;20066;-64
2022/06/12 04:54:39;;;;;;;6.30;5.22;;;;;;;23.80;45.91;99113.13;4972999;28;20086;-64
2022/06/12 04:57:06;;;;;;;5.60;5.00;;;;;;;23.93;46.20;99120.16;4972679;28;20066;-68
2022/06/12 04:59:31;;;;;;;5.57;5.03;;;;;;;24.10;44.78;99123.84;4938868;28;20198;-65
2022/06/12 05:01:57;;;;;;;7.93;6.13;;;;;;;24.25;44.63;99117.78;4972576;28;20540;-65
2022/06/12 05:04:24;;;;;;;8.60;5.28;;;;;;;24.26;44.38;99120.16;4971817;28;20134;-65
2022/06/12 05:06:50;;;;;;;6.95;5.13;;;;;;;24.15;44.35;99129.84;4972128;28;20045;-66
2022/06/12 05:09:18;;;;;;;5.45;4.95;;;;;;;24.16;44.77;99125.22;4972164;28;20501;-67
2022/06/12 05:11:44;;;;;;;8.93;5.18;;;;;;;24.17;44.23;99126.78;4971854;28;20388;-69
2022/06/12 05:14:10;;;;;;;13.98;5.15;;;;;;;23.93;44.91;99117.47;4954695;28;20121;-67
2022/06/12 05:16:42;;;;;;;7.25;5.30;;;;;;;23.71;45.82;99125.94;4971836;28;20146;-65
2022/06/12 05:19:12;;;;;;;7.18;5.20;;;;;;;23.62;46.11;99130.59;4954699;28;20047;-65
2022/06/12 05:21:39;;;;;;;8.23;5.03;;;;;;;23.46;46.26;99117.66;4972525;28;20042;-64
2022/06/12 05:24:05;;;;;;;8.02;5.63;;;;;;;23.39;46.41;99117.41;4971694;28;20551;-64
2022/06/12 05:26:33;;;;;;;6.22;5.30;;;;;;;23.38;46.81;99120.41;4972024;28;20046;-64
2022/06/12 05:29:01;;;;;;;5.43;4.93;;;;;;;23.31;47.01;99115.53;4935912;28;20509;-65
2022/06/12 05:31:27;;;;;;;13.73;5.68;;;;;;;23.32;46.93;99130.63;4972093;28;20066;-68
2022/06/12 05:33:53;;;;;;;5.60;5.10;;;;;;;23.16;47.39;99125.03;4938141;28;20519;-67
2022/06/12 05:36:19;;;;;;;6.35;5.03;;;;;;;22.98;48.09;99123.53;4972094;28;20049;-68
2022/06/12 05:38:46;;;;;;;6.35;5.68;;;;;;;23.08;47.70;99121.22;4971606;28;20046;-68
2022/06/12 05:41:12;;;;;;;7.55;5.80;;;;;;;23.02;48.51;99119.06;4955042;28;20039;-67
2022/06/12 05:43:40;;;;;;;6.22;5.43;;;;;;;22.77;48.36;99120.75;4954549;28;20051;-67
2022/06/12 05:46:11;;;;;;;11.00;5.57;;;;;;;22.52;48.53;99123.22;4971878;28;20070;-66
2022/06/12 05:48:39;;;;;;;10.85;5.30;;;;;;;22.39;49.82;99121.50;4971635;28;20201;-66
2022/06/12 05:51:04;;;;;;;7.28;5.43;;;;;;;22.44;49.26;99121.31;4954254;28;20079;-67
2022/06/12 05:53:32;;;;;;;7.10;5.50;;;;;;;22.51;49.82;99118.94;4971801;28;20135;-65
2022/06/12 05:55:59;;;;;;;6.20;5.40;;;;;;;22.57;49.74;99122.25;4954821;28;20051;-67
2022/06/12 05:58:26;;;;;;;9.15;6.10;;;;;;;22.43;49.80;99123.22;4971796;28;20038;-68
2022/06/12 06:00:53;;;;;;;8.05;5.75;;;;;;;22.35;49.76;99128.66;4971376;28;20125;-67
2022/06/12 06:03:19;;;;;;;8.02;5.25;;;;;;;22.38;49.80;99123.44;4971066;28;20100;-66
2022/06/12 06:05:46;;;;;;;8.18;5.43;;;;;;;22.36;49.43;99127.56;4954789;28;20042;-66
2022/06/12 06:08:13;;;;;;;9.93;5.95;;;;;;;22.39;49.64;99114.19;4971336;28;20057;-68
2022/06/12 06:10:39;;;;;;;9.90;5.40;;;;;;;22.54;48.78;99115.59;4971545;28;20050;-66
2022/06/12 06:13:06;;;;;;;7.43;5.32;;;;;;;22.63;47.59;99120.97;4953930;28;20043;-65
2022/06/12 06:15:31;;;;;;;8.27;5.40;;;;;;;22.69;48.30;99108.84;4951175;28;20075;-66
2022/06/12 06:17:57;;;;;;;8.07;5.05;;;;;;;22.89;47.92;99113.53;4946580;28;20460;-65
2022/06/12 06:20:29;;;;;;;7.57;6.10;;;;;;;23.08;48.62;99110.41;4974428;28;20058;-65
2022/06/12 06:22:56;;;;;;;6.00;5.40;;;;;;;23.09;47.32;99117.44;4975523;28;20034;-64
2022/06/12 06:25:23;;;;;;;10.00;5.38;;;;;;;23.02;47.37;99105.53;4975152;28;20053;-66
2022/06/12 06:27:50;;;;;;;5.80;5.25;;;;;;;23.07;47.15;99116.16;4962954;28;20055;-65
2022/06/12 06:30:15;;;;;;;8.38;5.55;;;;;;;23.04;47.20;99108.72;4974570;28;20054;-66
2022/06/12 06:32:41;;;;;;;7.40;5.32;;;;;;;22.90;47.57;99106.22;4975061;28;20061;-66
2022/06/12 06:35:09;;;;;;;9.57;5.20;;;;;;;22.84;47.27;99100.19;4942281;28;20046;-65
2022/06/12 06:37:35;;;;;;;6.53;5.60;;;;;;;22.80;47.97;99098.47;4974443;28;20512;-64
2022/06/12 06:40:03;;;;;;;7.90;4.93;;;;;;;22.62;47.76;99100.47;4974987;28;20051;-68
2022/06/12 06:42:28;;;;;;;12.48;5.38;;;;;;;22.59;47.93;99098.38;4974074;28;20043;-64
2022/06/12 06:47:39;;;;;;;7.70;5.47;;;;;;;22.57;47.52;99093.31;4956935;28;20129;-64
2022/06/12 06:50:07;;;;;;;6.00;5.20;;;;;;;22.50;47.73;99089.53;4975477;28;20523;-63
2022/06/12 06:52:33;;;;;;;10.00;5.45;;;;;;;22.21;47.55;99093.78;4975224;28;20489;-64
2022/06/12 06:54:59;;;;;;;7.85;4.85;;;;;;;22.11;48.17;99086.75;4957827;28;20055;-63
2022/06/12 06:57:25;;;;;;;5.90;5.32;;;;;;;22.08;48.38;99089.31;4974871;28;20054;-67
2022/06/12 06:59:51;;;;;;;7.60;5.00;;;;;;;22.08;47.93;99078.50;4975068;28;20046;-65
2022/06/12 07:02:17;;;;;;;6.20;5.40;;;;;;;22.32;48.50;99078.78;4975081;28;20045;-65
2022/06/12 07:04:43;;;;;;;8.82;5.38;;;;;;;22.41;48.86;99090.38;4974267;28;20587;-64
2022/06/12 07:07:10;;;;;;;6.03;5.38;;;;;;;22.49;48.43;99088.75;4975038;28;20038;-65
2022/06/12 07:09:38;;;;;;;8.68;6.05;;;;;;;22.55;47.79;99086.66;4941319;28;20121;-63
2022/06/12 07:12:04;;;;;;;6.50;5.47;;;;;;;22.74;47.60;99078.16;4974923;28;20091;-66
2022/06/12 07:14:30;;;;;;;15.43;6.38;;;;;;;22.92;47.67;99085.06;4974636;28;20098;-63
2022/06/12 07:16:56;;;;;;;9.60;5.88;;;;;;;23.11;47.37;99081.94;4974751;28;20090;-63
2022/06/12 07:19:24;;;;;;;5.60;5.10;;;;;;;23.33;46.05;99075.44;4974907;28;20046;-63
2022/06/12 07:21:50;;;;;;;6.05;5.28;;;;;;;23.44;45.31;99079.34;4974934;28;20042;-64
2022/06/12 07:24:15;;;;;;;9.63;5.60;;;;;;;23.41;45.42;99073.78;4956742;28;20059;-63
2022/06/12 07:26:45;;;;;;;8.50;5.13;;;;;;;23.29;45.56;99080.69;4974871;28;20042;-62
2022/06/12 07:29:15;;;;;;;5.95;5.35;;;;;;;23.33;44.77;99081.66;4941155;28;20428;-62
2022/06/12 07:31:41;;;;;;;5.75;5.07;;;;;;;23.32;45.12;99074.66;4974222;28;20408;-64
2022/06/12 07:34:08;;;;;;;8.32;5.25;;;;;;;23.40;44.97;99073.00;4956842;28;20058;-67
2022/06/12 07:36:35;;;;;;;5.90;5.38;;;;;;;23.38;44.88;99074.44;4974412;28;20489;-69
2022/06/12 07:39:02;;;;;;;6.07;5.47;;;;;;;23.52;45.27;99064.16;4941169;28;20054;-68
2022/06/12 07:41:28;;;;;;;5.55;5.05;;;;;;;23.68;45.62;99061.63;4956885;28;20064;-68
2022/06/12 07:43:54;;;;;;;10.40;5.82;;;;;;;23.55;44.61;99069.69;4974307;28;20126;-67
2022/06/12 07:46:20;;;;;;;10.15;5.45;;;;;;;23.28;45.56;99076.41;4973322;28;20035;-69
2022/06/12 07:48:47;;;;;;;6.28;5.28;;;;;;;23.01;44.89;99072.31;4974066;28;20528;-67
2022/06/12 07:51:17;;;;;;;6.38;5.18;;;;;;;23.12;44.75;99070.81;4940941;28;20046;-70
2022/06/12 07:53:44;;;;;;;6.50;4.85;;;;;;;23.20;43.99;99074.56;4956924;28;20404;-69
2022/06/12 07:56:11;;;;;;;6.03;5.13;;;;;;;23.19;44.68;99067.59;4974294;28;20097;-69
2022/06/12 07:58:37;;;;;;;8.98;5.70;;;;;;;23.01;45.27;99060.72;4974416;28;20038;-67
2022/06/12 08:01:05;;;;;;;6.30;5.32;;;;;;;22.87;45.17;99064.41;4956469;28;20531;-66
2022/06/12 08:03:32;;;;;;;6.57;4.75;;;;;;;22.68;45.04;99061.34;4974226;28;20138;-67
2022/06/12 08:05:58;;;;;;;7.30;4.80;;;;;;;22.75;45.21;99067.03;4973918;28;20051;-68
2022/06/12 08:08:25;;;;;;;6.43;4.30;;;;;;;22.97;43.55;99057.06;4973539;28;20129;-67
2022/06/12 08:10:50;;;;;;;6.10;5.50;;;;;;;23.18;42.06;99066.00;4974161;28;20062;-67
2022/06/12 08:13:17;;;;;;;5.22;4.20;;;;;;;23.13;41.03;99056.16;4974104;28;20046;-66
2022/06/12 08:15:45;;;;;;;5.93;4.15;;;;;;;23.11;40.63;99058.41;4973699;28;20067;-67
2022/06/12 08:18:13;;;;;;;6.28;4.03;;;;;;;23.20;40.62;99062.97;4973932;28;20105;-68
2022/06/12 08:20:45;;;;;;;7.57;5.07;;;;;;;23.23;40.55;99065.78;4956273;28;20108;-71
2022/06/12 08:23:28;;;;;;;5.03;4.20;;;;;;;23.33;40.48;99054.59;4973854;28;20078;-73
2022/06/12 08:26:04;;;;;;;8.38;4.82;;;;;;;23.39;40.63;99047.09;4973547;28;20428;-72
2022/06/12 08:28:42;;;;;;;5.68;4.72;;;;;;;23.41;41.38;99049.44;4955745;28;20428;-74
2022/06/12 08:31:11;;;;;;;7.22;5.07;;;;;;;23.37;41.55;99046.59;4956255;28;20137;-72
2022/06/12 08:33:38;;;;;;;7.15;4.82;;;;;;;23.42;40.30;99048.34;4956339;28;20074;-73
2022/06/12 08:36:05;;;;;;;5.22;4.75;;;;;;;23.35;40.74;99046.97;4956023;28;20097;-73
2022/06/12 08:38:31;;;;;;;6.78;4.70;;;;;;;23.35;40.85;99043.44;4973713;28;20405;-73
2022/06/12 08:41:18;;;;;;;5.95;4.78;;;;;;;23.31;41.50;99046.00;4973561;28;20043;-73
2022/06/12 08:44:03;;;;;;;4.75;4.35;;;;;;;23.34;41.01;99041.88;4972549;28;20428;-73
2022/06/12 08:46:32;;;;;;;7.70;4.68;;;;;;;23.43;41.66;99037.16;4973394;28;20102;-73
2022/06/12 08:49:06;;;;;;;5.00;4.57;;;;;;;23.56;40.47;99032.63;4955628;28;20054;-73
2022/06/12 08:51:38;;;;;;;8.00;4.82;;;;;;;23.77;42.02;99033.41;4956044;28;20054;-74
2022/06/12 08:54:13;;;;;;;6.63;4.80;;;;;;;23.90;40.68;99028.00;4973299;28;20047;-71
2022/06/12 08:56:50;;;;;;;5.50;4.50;;;;;;;23.84;40.03;99030.13;4973093;28;20065;-72
2022/06/12 08:59:21;;;;;;;12.05;4.85;;;;;;;23.74;39.68;99028.66;4939596;28;20054;-73
2022/06/12 09:01:47;;;;;;;5.10;4.40;;;;;;;23.75;39.56;99040.25;4972629;28;20043;-72
2022/06/12 09:04:18;;;;;;;6.57;4.50;;;;;;;23.91;40.15;99035.00;4939466;28;20050;-72
2022/06/12 09:06:46;;;;;;;6.55;4.53;;;;;;;23.91;39.26;99029.59;4952229;28;20432;-73
2022/06/12 09:09:22;;;;;;;9.65;5.10;;;;;;;23.94;38.84;99034.31;4968303;28;20070;-73
2022/06/12 09:12:03;;;;;;;6.75;5.07;;;;;;;24.06;38.44;99023.56;4967386;28;20579;-73
2022/06/12 09:14:55;;;;;;;6.90;4.40;;;;;;;24.28;38.61;99022.31;4950069;28;20093;-74
2022/06/12 09:17:43;;;;;;;8.73;4.90;;;;;;;24.28;37.82;99022.31;4967676;28;20432;-73
2022/06/12 09:20:17;;;;;;;4.72;4.22;;;;;;;24.26;37.54;99025.34;4967330;28;20065;-73
2022/06/12 09:23:12;;;;;;;5.50;4.25;;;;;;;24.31;37.00;99031.69;4934432;28;20050;-73
2022/06/12 09:26:13;;;;;;;5.97;4.68;;;;;;;24.45;36.63;99018.66;4906543;28;20059;-73
2022/06/12 09:28:39;;;;;;;10.07;4.88;;;;;;;24.69;37.82;99017.84;4937054;28;20120;-74
2022/06/12 09:31:18;;;;;;;4.82;4.32;;;;;;;24.85;37.50;99023.34;4967550;28;20133;-74
2022/06/12 09:34:08;;;;;;;11.30;4.47;;;;;;;24.87;37.43;99021.88;4949456;28;20047;-73
2022/06/12 09:36:41;;;;;;;;;;;;;;;24.73;37.18;99029.56;4968510;28;20520;-73
2022/06/12 09:39:20;;;;;;;4.90;4.40;;;;;;;24.45;37.46;99016.72;4951295;28;19949;-73
2022/06/12 09:42:03;;;;;;;5.28;4.47;;;;;;;24.25;37.84;99004.03;4949469;28;20034;-73
2022/06/12 09:44:38;;;;;;;6.38;4.38;;;;;;;24.08;37.72;99009.66;4966385;28;20051;-72
2022/06/12 09:47:33;;;;;;;7.38;5.03;;;;;;;24.06;37.78;99001.88;4966889;28;20081;-73
2022/06/12 09:50:12;;;;;;;5.45;4.00;;;;;;;24.18;38.14;99001.91;4937384;28;20078;-74
2022/06/12 09:53:00;;;;;;;5.07;4.68;;;;;;;24.30;37.57;99011.94;4934841;28;20152;-73
2022/06/12 09:55:32;;;;;;;5.68;4.60;;;;;;;24.26;38.06;99005.63;4958590;28;20043;-73
2022/06/12 09:58:16;;;;;;;5.13;4.30;;;;;;;24.04;38.82;99004.13;4959129;28;20054;-73
2022/06/12 10:00:45;;;;;;;5.32;4.45;;;;;;;23.80;38.15;98997.53;4959106;28;20579;-73
2022/06/12 10:03:20;;;;;;;5.38;4.45;;;;;;;23.55;38.71;98995.84;4976495;28;20113;-73
2022/06/12 10:06:33;;;;;;;5.90;4.50;;;;;;;23.23;39.18;98992.78;4976385;28;20045;-73
2022/06/12 10:09:26;;;;;;;7.43;5.18;;;;;;;23.23;39.24;98989.28;4961434;28;20198;-73
2022/06/12 10:12:00;;;;;;;5.85;5.07;;;;;;;23.16;40.34;98994.47;4942249;28;20452;-73
2022/06/12 10:14:39;;;;;;;5.00;4.50;;;;;;;23.07;39.95;98995.31;4942601;28;20045;-73
2022/06/12 10:17:11;;;;;;;4.63;4.30;;;;;;;23.08;38.34;98990.69;4958850;28;20113;-72
2022/06/12 10:19:50;;;;;;;4.40;4.03;;;;;;;23.11;38.30;98980.00;4958952;28;20075;-73
2022/06/12 10:22:21;;;;;;;6.30;4.80;;;;;;;23.18;38.99;98987.59;4975959;28;20047;-72
2022/06/12 10:24:46;;;;;;;9.45;4.70;;;;;;;23.15;39.58;98984.75;4926650;28;20564;-72
2022/06/12 10:27:14;;;;;;;5.28;4.78;;;;;;;23.09;39.81;98984.97;4958253;28;20121;-73
2022/06/12 10:30:00;;;;;;;7.65;4.93;;;;;;;23.04;39.47;98981.66;4975919;28;20046;-73
2022/06/12 10:32:50;;;;;;;5.38;4.70;;;;;;;23.05;39.21;98981.31;4975657;28;20244;-72
2022/06/12 10:35:16;;;;;;;;;;;;;;;23.23;39.22;98970.38;4976378;28;20050;-72
2022/06/12 10:37:42;;;;;;;4.50;4.07;;;;;;;23.35;38.48;98968.53;4958164;28;19921;-73
2022/06/12 10:40:19;;;;;;;5.53;4.28;;;;;;;23.26;39.07;98969.72;4975664;28;20055;-72
2022/06/12 10:42:49;;;;;;;6.45;4.72;;;;;;;23.24;39.30;98970.06;4975873;28;20042;-72
2022/06/12 10:45:33;;;;;;;5.93;4.90;;;;;;;23.22;38.61;98964.19;4958216;28;20054;-72
2022/06/12 10:48:02;;;;;;;4.97;4.47;;;;;;;23.17;39.23;98958.97;4958057;28;20054;-72
2022/06/12 10:50:34;;;;;;;5.53;4.20;;;;;;;23.07;38.95;98956.69;4958177;28;20051;-74
2022/06/12 10:53:09;;;;;;;7.45;4.70;;;;;;;23.01;39.51;98964.19;4975324;28;20068;-73
2022/06/12 10:55:41;;;;;;;5.03;4.53;;;;;;;22.87;39.44;98969.03;4975403;28;20043;-73
2022/06/12 10:58:28;;;;;;;6.43;4.80;;;;;;;22.89;39.34;98964.09;4957914;28;20047;-72
2022/06/12 11:00:58;;;;;;;9.90;4.82;;;;;;;22.84;39.61;98959.66;4957937;28;20417;-73
2022/06/12 11:03:23;;;;;;;5.25;4.75;;;;;;;22.85;39.79;98966.69;4957827;28;20305;-71
2022/06/12 11:06:13;;;;;;;5.13;4.63;;;;;;;22.81;39.47;98954.94;4940703;28;20608;-73
2022/06/12 11:09:14;;;;;;;6.70;4.60;;;;;;;22.81;39.71;98952.22;4942017;28;20086;-73
2022/06/12 11:11:51;;;;;;;7.47;4.63;;;;;;;;;;4975026;28;20042;-74
2022/06/12 11:14:47;;;;;;;6.03;4.63;;;;;;;22.89;39.26;98945.97;4975166;28;20050;-74
2022/06/12 11:17:36;;;;;;;4.80;4.28;;;;;;;23.18;38.32;98940.81;4975176;28;20416;-72
2022/06/12 11:20:22;;;;;;;6.25;4.97;;;;;;;23.30;39.02;98943.59;4975193;28;20047;-73
2022/06/12 11:23:30;;;;;;;5.20;4.70;;;;;;;23.36;38.01;98936.88;4941040;28;20133;-73
2022/06/12 11:26:17;;;;;;;5.30;4.68;;;;;;;23.60;37.28;98935.34;4964275;28;20171;-72
2022/06/12 11:29:01;;;;;;;7.38;4.90;;;;;;;23.76;37.13;98931.66;4957284;28;20074;-73
2022/06/12 11:31:51;;;;;;;7.18;4.93;;;;;;;23.96;37.44;98923.81;4974761;28;20047;-72
2022/06/12 11:34:26;;;;;;;;;;;;;;;24.14;37.06;98927.09;4974806;28;20564;-71
2022/06/12 11:36:58;;;;;;;7.05;5.13;;;;;;;24.22;36.95;98923.47;4957237;28;19926;-73
2022/06/12 11:39:43;;;;;;;5.10;4.43;;;;;;;24.24;36.92;98927.44;4974297;28;20089;-74
2022/06/12 11:42:17;;;;;;;7.15;4.82;;;;;;;24.17;37.32;98927.19;4957231;28;20042;-73
2022/06/12 11:44:57;;;;;;;9.32;5.28;;;;;;;24.16;36.78;98928.31;4956984;28;20051;-73
2022/06/12 11:47:29;;;;;;;9.32;4.93;;;;;;;24.20;36.23;98926.50;4956882;28;20531;-73
2022/06/12 11:50:17;;;;;;;5.72;4.90;;;;;;;24.28;36.25;98921.34;4974267;28;20532;-72
2022/06/12 11:52:53;;;;;;;5.25;4.75;;;;;;;24.34;35.94;98918.03;4974228;28;20053;-72
2022/06/12 11:56:00;;;;;;;7.53;4.93;;;;;;;24.56;35.65;98916.81;4974083;28;20472;-73
2022/06/12 11:58:40;;;;;;;6.40;4.72;;;;;;;24.53;35.69;98903.97;4956620;28;20042;-73
2022/06/12 12:01:39;;;;;;;5.53;4.50;;;;;;;24.64;34.84;98894.19;4974015;28;20539;-73
2022/06/12 12:04:26;;;;;;;5.10;4.35;;;;;;;24.78;34.55;98895.75;4931448;28;20061;-72
2022/06/12 12:07:20;;;;;;;5.78;4.32;;;;;;;25.05;34.08;98894.97;4956328;28;20046;-73
2022/06/12 12:09:49;;;;;;;5.05;4.50;;;;;;;25.28;33.65;98894.44;4956781;28;20069;-73
2022/06/12 12:12:18;;;;;;;7.50;4.85;;;;;;;25.31;33.80;98891.81;4973561;28;20057;-73